首页
METAR-TAF:

METAR-TAF

机场 :

Island Lake, 曼尼托巴, 加拿大

纬度: 53-51N, 经度: 094-39W, 海拔: 237米

当前天气观测

该预报发布于23小时和42分钟前的21:12 UTC
风速5节,风向东转东南,在南转南东之间变化
温度 19°C
湿度 94%
气压 994 hPa
能見度: 14.5公里
少量云层高于5000英尺
散云层高于7100英尺
多云层高于18000英尺

METAR: CYIV 242112Z AUTO 12005KT 090V150 9SM FEW050 SCT071 BKN180 19/18 A2935 RMK SLP944 DENSITY ALT 2100FT

时间: 15:54 (20:54 UTC)

预报

该预报发布于26小时和14分钟前的18:40 UTC
预报有效从24日的 19点(UTC)到 25日的 07点(UTC)
风速10节,风向
能見度: 10公里
多云层高于5000英尺
阴天层高于10000英尺
短暂存在
从 24日的 19点(UTC)到 24日的 22点(UTC)
风速20节,风向多变,有时为30节阵风
能見度: 4.0公里
多云层高于2000英尺
阴天层高于4000英尺, 积雨云.
雷暴, 雨
从 24日的 2200点(UTC)
风速10节,风向西转西南
能見度: 10公里
多云层高于2000英尺
阴天层高于5000英尺
小阵雨
几率 40%
从 24日的 22点(UTC)到 25日的 07点(UTC)
风速20节,风向多变,有时为30节阵风
能見度: 3.2公里
多云层高于800英尺
阴天层高于2000英尺, 积雨云.
雷暴, 大雨, 轻雾

TAF: CYIV 241840Z 2419/2507 18010KT P6SM BKN050 OVC100 TEMPO 2419/2422 VRB20G30KT 2 1/2SM TSRA BKN020 OVC040CB FM242200 24010KT P6SM -SHRA BKN020 OVC050 PROB40 2422/2507 VRB20G30KT 3SM +TSRA BR BKN008 OVC020CB RMK FCST BASED ON AUTO OBS. NXT FCST BY 250100Z

超过4000个机场的气象观测和天气预报(METAR&TAF报告)。

可查询的气象台以黄色和红色小点在地图上表示。

将鼠标移到小点上方,可查看气象台名称。

然后点击查看天气观测和预报。

如需切换地图:点击带黑十字的绿色按钮放大地图;点击带横线的绿色按钮缩小地图;或者点击绿色箭头查看邻近地区的地图。


METAR-TAF: